sensor_id;sensor_type;location;lat;lon;timestamp;P1;durP1;ratioP1;P2;durP2;ratioP2
56161;SDS011;42045;52.986;6.014;2023-06-10T00:02:04;14.20;;;9.65;;
56161;SDS011;42045;52.986;6.014;2023-06-10T00:04:31;14.15;;;9.73;;
56161;SDS011;42045;52.986;6.014;2023-06-10T00:06:56;13.35;;;7.82;;
56161;SDS011;42045;52.986;6.014;2023-06-10T00:09:22;16.83;;;9.48;;
56161;SDS011;42045;52.986;6.014;2023-06-10T00:11:47;13.30;;;8.55;;
56161;SDS011;42045;52.986;6.014;2023-06-10T00:14:13;11.18;;;9.20;;
56161;SDS011;42045;52.986;6.014;2023-06-10T00:16:39;13.25;;;9.02;;
56161;SDS011;42045;52.986;6.014;2023-06-10T00:19:05;14.63;;;8.70;;
56161;SDS011;42045;52.986;6.014;2023-06-10T00:21:32;12.63;;;9.50;;
56161;SDS011;42045;52.986;6.014;2023-06-10T00:24:05;11.70;;;8.27;;
56161;SDS011;42045;52.986;6.014;2023-06-10T00:26:35;17.15;;;9.73;;
56161;SDS011;42045;52.986;6.014;2023-06-10T00:29:00;13.75;;;8.43;;
56161;SDS011;42045;52.986;6.014;2023-06-10T00:31:26;15.48;;;8.50;;
56161;SDS011;42045;52.986;6.014;2023-06-10T00:33:52;110.70;;;14.18;;
56161;SDS011;42045;52.986;6.014;2023-06-10T00:36:18;14.77;;;9.43;;
56161;SDS011;42045;52.986;6.014;2023-06-10T00:38:44;14.43;;;8.30;;
56161;SDS011;42045;52.986;6.014;2023-06-10T00:41:10;12.25;;;8.60;;
56161;SDS011;42045;52.986;6.014;2023-06-10T00:43:35;12.75;;;7.90;;
56161;SDS011;42045;52.986;6.014;2023-06-10T00:46:01;13.02;;;8.20;;
56161;SDS011;42045;52.986;6.014;2023-06-10T00:48:27;17.20;;;8.88;;
56161;SDS011;42045;52.986;6.014;2023-06-10T00:50:53;14.13;;;9.05;;
56161;SDS011;42045;52.986;6.014;2023-06-10T00:53:19;9.98;;;7.93;;
56161;SDS011;42045;52.986;6.014;2023-06-10T00:55:46;13.93;;;8.60;;
56161;SDS011;42045;52.986;6.014;2023-06-10T00:58:12;10.50;;;8.65;;
56161;SDS011;42045;52.986;6.014;2023-06-10T01:00:38;11.13;;;8.23;;
56161;SDS011;42045;52.986;6.014;2023-06-10T01:03:04;11.85;;;8.80;;
56161;SDS011;42045;52.986;6.014;2023-06-10T01:05:36;11.90;;;8.50;;
56161;SDS011;42045;52.986;6.014;2023-06-10T01:08:05;12.85;;;8.30;;
56161;SDS011;42045;52.986;6.014;2023-06-10T01:10:54;11.27;;;7.85;;
56161;SDS011;42045;52.986;6.014;2023-06-10T01:13:24;10.55;;;9.00;;
56161;SDS011;42045;52.986;6.014;2023-06-10T01:15:53;13.05;;;9.15;;
56161;SDS011;42045;52.986;6.014;2023-06-10T01:18:21;11.68;;;9.02;;
56161;SDS011;42045;52.986;6.014;2023-06-10T01:20:47;10.65;;;8.88;;
56161;SDS011;42045;52.986;6.014;2023-06-10T01:23:14;11.13;;;8.02;;
56161;SDS011;42045;52.986;6.014;2023-06-10T01:25:52;16.02;;;9.60;;
56161;SDS011;42045;52.986;6.014;2023-06-10T01:31:29;12.20;;;9.40;;
56161;SDS011;42045;52.986;6.014;2023-06-10T01:34:06;16.15;;;8.93;;
56161;SDS011;42045;52.986;6.014;2023-06-10T01:36:35;13.30;;;8.50;;
56161;SDS011;42045;52.986;6.014;2023-06-10T01:39:02;11.23;;;8.32;;
56161;SDS011;42045;52.986;6.014;2023-06-10T01:41:30;11.20;;;8.45;;
56161;SDS011;42045;52.986;6.014;2023-06-10T01:43:57;12.35;;;9.25;;
56161;SDS011;42045;52.986;6.014;2023-06-10T01:46:22;13.75;;;8.52;;
56161;SDS011;42045;52.986;6.014;2023-06-10T01:48:48;13.88;;;9.13;;
56161;SDS011;42045;52.986;6.014;2023-06-10T01:51:14;13.30;;;9.18;;
56161;SDS011;42045;52.986;6.014;2023-06-10T01:53:40;12.13;;;8.73;;
56161;SDS011;42045;52.986;6.014;2023-06-10T01:56:05;10.75;;;7.90;;
56161;SDS011;42045;52.986;6.014;2023-06-10T01:58:31;11.32;;;8.35;;
56161;SDS011;42045;52.986;6.014;2023-06-10T02:00:57;12.50;;;8.88;;
56161;SDS011;42045;52.986;6.014;2023-06-10T02:03:23;16.30;;;9.30;;
56161;SDS011;42045;52.986;6.014;2023-06-10T02:05:49;11.40;;;8.05;;
56161;SDS011;42045;52.986;6.014;2023-06-10T02:08:15;12.63;;;9.07;;
56161;SDS011;42045;52.986;6.014;2023-06-10T02:10:41;13.00;;;8.90;;
56161;SDS011;42045;52.986;6.014;2023-06-10T02:13:06;12.73;;;8.60;;
56161;SDS011;42045;52.986;6.014;2023-06-10T02:15:32;12.27;;;8.55;;
56161;SDS011;42045;52.986;6.014;2023-06-10T02:17:58;12.00;;;8.77;;
56161;SDS011;42045;52.986;6.014;2023-06-10T02:20:25;13.63;;;8.85;;
56161;SDS011;42045;52.986;6.014;2023-06-10T02:22:51;12.60;;;8.40;;
56161;SDS011;42045;52.986;6.014;2023-06-10T02:25:18;12.15;;;8.57;;
56161;SDS011;42045;52.986;6.014;2023-06-10T02:27:43;16.05;;;9.25;;
56161;SDS011;42045;52.986;6.014;2023-06-10T02:30:09;13.32;;;9.15;;
56161;SDS011;42045;52.986;6.014;2023-06-10T02:32:36;13.63;;;9.02;;
56161;SDS011;42045;52.986;6.014;2023-06-10T02:35:01;13.40;;;8.68;;
56161;SDS011;42045;52.986;6.014;2023-06-10T02:37:27;12.98;;;8.68;;
56161;SDS011;42045;52.986;6.014;2023-06-10T02:39:53;11.65;;;8.70;;
56161;SDS011;42045;52.986;6.014;2023-06-10T02:42:18;11.27;;;8.52;;
56161;SDS011;42045;52.986;6.014;2023-06-10T02:44:44;15.27;;;8.90;;
56161;SDS011;42045;52.986;6.014;2023-06-10T02:47:10;13.95;;;9.98;;
56161;SDS011;42045;52.986;6.014;2023-06-10T02:49:35;14.55;;;8.35;;
56161;SDS011;42045;52.986;6.014;2023-06-10T02:52:01;13.35;;;8.90;;
56161;SDS011;42045;52.986;6.014;2023-06-10T02:54:32;10.50;;;8.32;;
56161;SDS011;42045;52.986;6.014;2023-06-10T02:56:57;10.88;;;8.95;;
56161;SDS011;42045;52.986;6.014;2023-06-10T02:59:23;13.30;;;8.50;;
56161;SDS011;42045;52.986;6.014;2023-06-10T03:01:48;14.75;;;8.85;;
56161;SDS011;42045;52.986;6.014;2023-06-10T03:04:15;11.35;;;8.73;;
56161;SDS011;42045;52.986;6.014;2023-06-10T03:06:41;11.27;;;7.50;;
56161;SDS011;42045;52.986;6.014;2023-06-10T03:09:07;14.40;;;8.60;;
56161;SDS011;42045;52.986;6.014;2023-06-10T03:11:33;14.43;;;9.75;;
56161;SDS011;42045;52.986;6.014;2023-06-10T03:13:58;15.63;;;9.13;;
56161;SDS011;42045;52.986;6.014;2023-06-10T03:16:24;12.95;;;8.07;;
56161;SDS011;42045;52.986;6.014;2023-06-10T03:18:53;14.13;;;8.90;;
56161;SDS011;42045;52.986;6.014;2023-06-10T03:21:19;16.77;;;8.48;;
56161;SDS011;42045;52.986;6.014;2023-06-10T03:23:45;11.90;;;8.68;;
56161;SDS011;42045;52.986;6.014;2023-06-10T03:26:11;12.63;;;8.50;;
56161;SDS011;42045;52.986;6.014;2023-06-10T03:28:39;13.05;;;8.00;;
56161;SDS011;42045;52.986;6.014;2023-06-10T03:31:06;13.55;;;7.50;;
56161;SDS011;42045;52.986;6.014;2023-06-10T03:33:32;10.90;;;7.72;;
56161;SDS011;42045;52.986;6.014;2023-06-10T03:35:58;11.10;;;8.15;;
56161;SDS011;42045;52.986;6.014;2023-06-10T03:38:24;10.13;;;7.88;;
56161;SDS011;42045;52.986;6.014;2023-06-10T03:40:49;12.75;;;7.55;;
56161;SDS011;42045;52.986;6.014;2023-06-10T03:43:15;13.40;;;7.82;;
56161;SDS011;42045;52.986;6.014;2023-06-10T03:45:41;11.32;;;7.95;;
56161;SDS011;42045;52.986;6.014;2023-06-10T03:48:07;11.98;;;8.32;;
56161;SDS011;42045;52.986;6.014;2023-06-10T03:50:33;11.75;;;8.27;;
56161;SDS011;42045;52.986;6.014;2023-06-10T03:52:59;13.68;;;7.28;;
56161;SDS011;42045;52.986;6.014;2023-06-10T03:55:25;11.00;;;7.82;;
56161;SDS011;42045;52.986;6.014;2023-06-10T03:57:51;14.07;;;7.78;;
56161;SDS011;42045;52.986;6.014;2023-06-10T04:00:17;11.68;;;6.82;;
56161;SDS011;42045;52.986;6.014;2023-06-10T04:02:44;11.82;;;7.55;;
56161;SDS011;42045;52.986;6.014;2023-06-10T04:05:17;11.55;;;7.30;;
56161;SDS011;42045;52.986;6.014;2023-06-10T04:07:46;9.90;;;6.50;;
56161;SDS011;42045;52.986;6.014;2023-06-10T04:10:13;9.95;;;6.97;;
56161;SDS011;42045;52.986;6.014;2023-06-10T04:12:39;11.30;;;6.93;;
56161;SDS011;42045;52.986;6.014;2023-06-10T04:15:06;11.48;;;7.32;;
56161;SDS011;42045;52.986;6.014;2023-06-10T04:17:32;9.95;;;6.55;;
56161;SDS011;42045;52.986;6.014;2023-06-10T04:19:58;11.50;;;6.47;;
56161;SDS011;42045;52.986;6.014;2023-06-10T04:22:23;10.95;;;6.93;;
56161;SDS011;42045;52.986;6.014;2023-06-10T04:24:50;10.38;;;6.68;;
56161;SDS011;42045;52.986;6.014;2023-06-10T04:27:16;10.73;;;6.57;;
56161;SDS011;42045;52.986;6.014;2023-06-10T04:29:41;9.57;;;5.90;;
56161;SDS011;42045;52.986;6.014;2023-06-10T04:32:07;8.05;;;5.75;;
56161;SDS011;42045;52.986;6.014;2023-06-10T04:34:33;10.93;;;6.65;;
56161;SDS011;42045;52.986;6.014;2023-06-10T04:36:59;9.32;;;6.22;;
56161;SDS011;42045;52.986;6.014;2023-06-10T04:39:25;10.95;;;6.50;;
56161;SDS011;42045;52.986;6.014;2023-06-10T04:41:51;8.23;;;5.78;;
56161;SDS011;42045;52.986;6.014;2023-06-10T04:44:16;10.90;;;6.25;;
56161;SDS011;42045;52.986;6.014;2023-06-10T04:46:43;9.43;;;6.20;;
56161;SDS011;42045;52.986;6.014;2023-06-10T04:49:09;8.45;;;5.85;;
56161;SDS011;42045;52.986;6.014;2023-06-10T04:51:35;6.80;;;5.38;;
56161;SDS011;42045;52.986;6.014;2023-06-10T04:54:01;9.25;;;6.25;;
56161;SDS011;42045;52.986;6.014;2023-06-10T04:56:29;8.95;;;6.13;;
56161;SDS011;42045;52.986;6.014;2023-06-10T04:58:56;7.70;;;6.13;;
56161;SDS011;42045;52.986;6.014;2023-06-10T05:01:22;10.75;;;6.40;;
56161;SDS011;42045;52.986;6.014;2023-06-10T05:03:48;10.15;;;6.78;;
56161;SDS011;42045;52.986;6.014;2023-06-10T05:06:14;10.18;;;7.13;;
56161;SDS011;42045;52.986;6.014;2023-06-10T05:08:40;10.43;;;5.97;;
56161;SDS011;42045;52.986;6.014;2023-06-10T05:11:05;8.52;;;5.80;;
56161;SDS011;42045;52.986;6.014;2023-06-10T05:13:31;9.88;;;6.07;;
56161;SDS011;42045;52.986;6.014;2023-06-10T05:15:57;10.02;;;6.32;;
56161;SDS011;42045;52.986;6.014;2023-06-10T05:18:23;11.32;;;6.30;;
56161;SDS011;42045;52.986;6.014;2023-06-10T05:20:49;9.60;;;5.88;;
56161;SDS011;42045;52.986;6.014;2023-06-10T05:23:15;10.48;;;7.40;;
56161;SDS011;42045;52.986;6.014;2023-06-10T05:25:40;7.68;;;6.25;;
56161;SDS011;42045;52.986;6.014;2023-06-10T05:28:07;9.65;;;6.35;;
56161;SDS011;42045;52.986;6.014;2023-06-10T05:30:35;10.60;;;5.78;;
56161;SDS011;42045;52.986;6.014;2023-06-10T05:33:01;7.63;;;6.68;;
56161;SDS011;42045;52.986;6.014;2023-06-10T05:35:26;7.95;;;6.00;;
56161;SDS011;42045;52.986;6.014;2023-06-10T05:37:52;10.43;;;6.38;;
56161;SDS011;42045;52.986;6.014;2023-06-10T05:40:18;11.30;;;6.30;;
56161;SDS011;42045;52.986;6.014;2023-06-10T05:42:43;10.65;;;6.28;;
56161;SDS011;42045;52.986;6.014;2023-06-10T05:45:09;8.88;;;6.25;;
56161;SDS011;42045;52.986;6.014;2023-06-10T05:47:35;8.77;;;5.95;;
56161;SDS011;42045;52.986;6.014;2023-06-10T05:50:01;7.20;;;5.60;;
56161;SDS011;42045;52.986;6.014;2023-06-10T05:52:27;9.43;;;5.90;;
56161;SDS011;42045;52.986;6.014;2023-06-10T05:54:53;11.55;;;6.45;;
56161;SDS011;42045;52.986;6.014;2023-06-10T05:57:19;12.10;;;6.38;;
56161;SDS011;42045;52.986;6.014;2023-06-10T05:59:45;10.07;;;6.32;;
56161;SDS011;42045;52.986;6.014;2023-06-10T06:02:11;12.95;;;6.40;;
56161;SDS011;42045;52.986;6.014;2023-06-10T06:04:36;8.30;;;6.75;;
56161;SDS011;42045;52.986;6.014;2023-06-10T06:07:02;10.70;;;6.22;;
56161;SDS011;42045;52.986;6.014;2023-06-10T06:09:28;10.23;;;6.60;;
56161;SDS011;42045;52.986;6.014;2023-06-10T06:11:54;7.45;;;5.97;;
56161;SDS011;42045;52.986;6.014;2023-06-10T06:14:20;11.00;;;5.70;;
56161;SDS011;42045;52.986;6.014;2023-06-10T06:16:46;9.35;;;5.97;;
56161;SDS011;42045;52.986;6.014;2023-06-10T06:19:11;10.38;;;6.18;;
56161;SDS011;42045;52.986;6.014;2023-06-10T06:21:37;8.70;;;6.38;;
56161;SDS011;42045;52.986;6.014;2023-06-10T06:24:03;9.60;;;5.70;;
56161;SDS011;42045;52.986;6.014;2023-06-10T06:26:28;12.82;;;7.15;;
56161;SDS011;42045;52.986;6.014;2023-06-10T06:28:54;9.75;;;7.05;;
56161;SDS011;42045;52.986;6.014;2023-06-10T06:31:20;13.07;;;5.75;;
56161;SDS011;42045;52.986;6.014;2023-06-10T06:33:45;9.57;;;7.03;;
56161;SDS011;42045;52.986;6.014;2023-06-10T06:36:11;11.68;;;6.43;;
56161;SDS011;42045;52.986;6.014;2023-06-10T06:38:37;9.10;;;6.57;;
56161;SDS011;42045;52.986;6.014;2023-06-10T06:41:02;9.70;;;6.07;;
56161;SDS011;42045;52.986;6.014;2023-06-10T06:43:30;10.20;;;6.32;;
56161;SDS011;42045;52.986;6.014;2023-06-10T06:45:56;9.30;;;5.60;;
56161;SDS011;42045;52.986;6.014;2023-06-10T06:48:22;9.52;;;6.65;;
56161;SDS011;42045;52.986;6.014;2023-06-10T06:50:48;11.73;;;6.13;;
56161;SDS011;42045;52.986;6.014;2023-06-10T06:53:14;10.77;;;6.93;;
56161;SDS011;42045;52.986;6.014;2023-06-10T06:55:40;12.10;;;6.32;;
56161;SDS011;42045;52.986;6.014;2023-06-10T06:58:05;8.27;;;5.80;;
56161;SDS011;42045;52.986;6.014;2023-06-10T07:00:31;10.02;;;5.93;;
56161;SDS011;42045;52.986;6.014;2023-06-10T07:02:57;10.20;;;6.28;;
56161;SDS011;42045;52.986;6.014;2023-06-10T07:05:23;14.57;;;7.03;;
56161;SDS011;42045;52.986;6.014;2023-06-10T07:07:55;10.95;;;5.90;;
56161;SDS011;42045;52.986;6.014;2023-06-10T07:10:24;7.95;;;5.80;;
56161;SDS011;42045;52.986;6.014;2023-06-10T07:12:50;7.32;;;5.72;;
56161;SDS011;42045;52.986;6.014;2023-06-10T07:15:16;8.43;;;6.85;;
56161;SDS011;42045;52.986;6.014;2023-06-10T07:17:42;10.65;;;6.43;;
56161;SDS011;42045;52.986;6.014;2023-06-10T07:20:08;9.55;;;6.00;;
56161;SDS011;42045;52.986;6.014;2023-06-10T07:22:34;8.23;;;6.05;;
56161;SDS011;42045;52.986;6.014;2023-06-10T07:25:00;8.90;;;6.35;;
56161;SDS011;42045;52.986;6.014;2023-06-10T07:27:26;9.18;;;6.35;;
56161;SDS011;42045;52.986;6.014;2023-06-10T07:29:51;11.48;;;6.35;;
56161;SDS011;42045;52.986;6.014;2023-06-10T07:32:17;8.48;;;6.22;;
56161;SDS011;42045;52.986;6.014;2023-06-10T07:34:45;9.55;;;6.45;;
56161;SDS011;42045;52.986;6.014;2023-06-10T07:37:11;8.85;;;6.25;;
56161;SDS011;42045;52.986;6.014;2023-06-10T07:39:37;8.82;;;6.15;;
56161;SDS011;42045;52.986;6.014;2023-06-10T07:42:02;11.27;;;6.55;;
56161;SDS011;42045;52.986;6.014;2023-06-10T07:44:28;12.02;;;6.72;;
56161;SDS011;42045;52.986;6.014;2023-06-10T07:46:54;10.48;;;6.68;;
56161;SDS011;42045;52.986;6.014;2023-06-10T07:49:20;9.45;;;6.18;;
56161;SDS011;42045;52.986;6.014;2023-06-10T07:51:45;11.35;;;5.70;;
56161;SDS011;42045;52.986;6.014;2023-06-10T07:54:11;7.53;;;5.65;;
56161;SDS011;42045;52.986;6.014;2023-06-10T07:56:37;14.02;;;6.03;;
56161;SDS011;42045;52.986;6.014;2023-06-10T07:59:03;7.50;;;6.03;;
56161;SDS011;42045;52.986;6.014;2023-06-10T08:01:29;10.20;;;5.82;;
56161;SDS011;42045;52.986;6.014;2023-06-10T08:03:55;8.77;;;6.35;;
56161;SDS011;42045;52.986;6.014;2023-06-10T08:06:21;10.00;;;6.20;;
56161;SDS011;42045;52.986;6.014;2023-06-10T08:08:46;8.07;;;6.72;;
56161;SDS011;42045;52.986;6.014;2023-06-10T08:11:12;10.25;;;5.53;;
56161;SDS011;42045;52.986;6.014;2023-06-10T08:13:38;7.60;;;5.50;;
56161;SDS011;42045;52.986;6.014;2023-06-10T08:16:05;10.50;;;5.82;;
56161;SDS011;42045;52.986;6.014;2023-06-10T08:18:31;11.48;;;6.03;;
56161;SDS011;42045;52.986;6.014;2023-06-10T08:20:56;12.10;;;6.53;;
56161;SDS011;42045;52.986;6.014;2023-06-10T08:23:22;9.80;;;6.43;;
56161;SDS011;42045;52.986;6.014;2023-06-10T08:25:48;10.13;;;6.22;;
56161;SDS011;42045;52.986;6.014;2023-06-10T08:28:14;9.07;;;5.75;;
56161;SDS011;42045;52.986;6.014;2023-06-10T08:30:39;8.88;;;5.95;;
56161;SDS011;42045;52.986;6.014;2023-06-10T08:33:05;11.18;;;6.30;;
56161;SDS011;42045;52.986;6.014;2023-06-10T08:35:31;8.18;;;5.55;;
56161;SDS011;42045;52.986;6.014;2023-06-10T08:37:56;9.02;;;5.97;;
56161;SDS011;42045;52.986;6.014;2023-06-10T08:40:22;8.27;;;5.72;;
56161;SDS011;42045;52.986;6.014;2023-06-10T08:45:21;9.88;;;5.70;;
56161;SDS011;42045;52.986;6.014;2023-06-10T08:47:50;8.10;;;5.22;;
56161;SDS011;42045;52.986;6.014;2023-06-10T08:50:18;9.68;;;5.97;;
56161;SDS011;42045;52.986;6.014;2023-06-10T08:52:44;11.05;;;6.05;;
56161;SDS011;42045;52.986;6.014;2023-06-10T08:55:15;8.50;;;5.57;;
56161;SDS011;42045;52.986;6.014;2023-06-10T08:57:45;8.93;;;5.07;;
56161;SDS011;42045;52.986;6.014;2023-06-10T09:00:13;6.97;;;5.38;;
56161;SDS011;42045;52.986;6.014;2023-06-10T09:02:39;6.95;;;5.53;;
56161;SDS011;42045;52.986;6.014;2023-06-10T09:05:05;8.18;;;5.63;;
56161;SDS011;42045;52.986;6.014;2023-06-10T09:07:31;7.78;;;5.53;;
56161;SDS011;42045;52.986;6.014;2023-06-10T09:09:59;9.55;;;5.68;;
56161;SDS011;42045;52.986;6.014;2023-06-10T09:12:28;9.20;;;5.45;;
56161;SDS011;42045;52.986;6.014;2023-06-10T09:14:54;8.57;;;6.07;;
56161;SDS011;42045;52.986;6.014;2023-06-10T09:17:20;7.93;;;5.80;;
56161;SDS011;42045;52.986;6.014;2023-06-10T09:19:47;9.25;;;6.30;;
56161;SDS011;42045;52.986;6.014;2023-06-10T09:22:13;8.90;;;5.32;;
56161;SDS011;42045;52.986;6.014;2023-06-10T09:24:39;6.75;;;5.45;;
56161;SDS011;42045;52.986;6.014;2023-06-10T09:27:07;8.98;;;5.53;;
56161;SDS011;42045;52.986;6.014;2023-06-10T09:29:46;8.57;;;5.47;;
56161;SDS011;42045;52.986;6.014;2023-06-10T09:32:17;10.02;;;5.93;;
56161;SDS011;42045;52.986;6.014;2023-06-10T09:34:43;6.70;;;5.22;;
56161;SDS011;42045;52.986;6.014;2023-06-10T09:37:09;8.30;;;5.55;;
56161;SDS011;42045;52.986;6.014;2023-06-10T09:39:37;8.45;;;5.15;;
56161;SDS011;42045;52.986;6.014;2023-06-10T09:42:16;5.82;;;4.55;;
56161;SDS011;42045;52.986;6.014;2023-06-10T09:44:48;13.73;;;5.32;;
56161;SDS011;42045;52.986;6.014;2023-06-10T09:47:21;8.80;;;5.57;;
56161;SDS011;42045;52.986;6.014;2023-06-10T09:49:48;9.15;;;5.00;;
56161;SDS011;42045;52.986;6.014;2023-06-10T09:52:14;8.63;;;5.32;;
56161;SDS011;42045;52.986;6.014;2023-06-10T09:57:12;8.07;;;4.85;;
56161;SDS011;42045;52.986;6.014;2023-06-10T09:59:39;7.65;;;4.88;;
56161;SDS011;42045;52.986;6.014;2023-06-10T10:02:06;7.32;;;5.10;;
56161;SDS011;42045;52.986;6.014;2023-06-10T10:04:31;6.40;;;5.10;;
56161;SDS011;42045;52.986;6.014;2023-06-10T10:07:00;8.68;;;4.70;;
56161;SDS011;42045;52.986;6.014;2023-06-10T10:09:26;7.82;;;4.57;;
56161;SDS011;42045;52.986;6.014;2023-06-10T10:11:52;10.25;;;5.63;;
56161;SDS011;42045;52.986;6.014;2023-06-10T10:14:20;7.25;;;4.75;;
56161;SDS011;42045;52.986;6.014;2023-06-10T10:16:46;8.90;;;4.50;;
56161;SDS011;42045;52.986;6.014;2023-06-10T10:19:15;7.32;;;5.25;;
56161;SDS011;42045;52.986;6.014;2023-06-10T10:21:56;9.07;;;4.57;;
56161;SDS011;42045;52.986;6.014;2023-06-10T10:24:36;6.40;;;4.95;;
56161;SDS011;42045;52.986;6.014;2023-06-10T10:27:07;7.55;;;4.35;;
56161;SDS011;42045;52.986;6.014;2023-06-10T10:29:39;8.38;;;4.68;;
56161;SDS011;42045;52.986;6.014;2023-06-10T10:32:06;5.70;;;4.43;;
56161;SDS011;42045;52.986;6.014;2023-06-10T10:34:43;5.68;;;4.55;;
56161;SDS011;42045;52.986;6.014;2023-06-10T10:37:20;9.68;;;4.35;;
56161;SDS011;42045;52.986;6.014;2023-06-10T10:39:46;5.43;;;4.68;;
56161;SDS011;42045;52.986;6.014;2023-06-10T10:42:13;9.88;;;4.70;;
56161;SDS011;42045;52.986;6.014;2023-06-10T10:44:39;5.93;;;4.07;;
56161;SDS011;42045;52.986;6.014;2023-06-10T10:47:07;8.52;;;4.47;;
56161;SDS011;42045;52.986;6.014;2023-06-10T10:49:35;7.20;;;4.25;;
56161;SDS011;42045;52.986;6.014;2023-06-10T10:52:02;6.80;;;4.03;;
56161;SDS011;42045;52.986;6.014;2023-06-10T10:54:34;6.40;;;4.20;;
56161;SDS011;42045;52.986;6.014;2023-06-10T10:59:46;4.25;;;3.55;;
56161;SDS011;42045;52.986;6.014;2023-06-10T11:05:13;6.53;;;4.20;;
56161;SDS011;42045;52.986;6.014;2023-06-10T11:07:40;7.10;;;4.32;;
56161;SDS011;42045;52.986;6.014;2023-06-10T11:10:16;4.75;;;3.60;;
56161;SDS011;42045;52.986;6.014;2023-06-10T11:15:22;5.72;;;3.60;;
56161;SDS011;42045;52.986;6.014;2023-06-10T11:28:37;6.93;;;4.93;;
56161;SDS011;42045;52.986;6.014;2023-06-10T11:31:03;5.72;;;3.58;;
56161;SDS011;42045;52.986;6.014;2023-06-10T11:33:29;4.20;;;3.80;;
56161;SDS011;42045;52.986;6.014;2023-06-10T11:35:56;7.50;;;3.50;;
56161;SDS011;42045;52.986;6.014;2023-06-10T11:38:21;6.43;;;3.55;;
56161;SDS011;42045;52.986;6.014;2023-06-10T11:40:51;6.38;;;3.67;;
56161;SDS011;42045;52.986;6.014;2023-06-10T11:43:17;6.20;;;3.75;;
56161;SDS011;42045;52.986;6.014;2023-06-10T11:45:43;6.57;;;3.97;;
56161;SDS011;42045;52.986;6.014;2023-06-10T11:48:09;6.25;;;3.70;;
56161;SDS011;42045;52.986;6.014;2023-06-10T11:50:36;5.00;;;3.58;;
56161;SDS011;42045;52.986;6.014;2023-06-10T11:53:02;5.97;;;3.80;;
56161;SDS011;42045;52.986;6.014;2023-06-10T11:58:19;6.28;;;3.92;;
56161;SDS011;42045;52.986;6.014;2023-06-10T12:03:16;6.28;;;4.22;;
56161;SDS011;42045;52.986;6.014;2023-06-10T12:08:33;5.25;;;3.85;;
56161;SDS011;42045;52.986;6.014;2023-06-10T12:11:06;8.48;;;3.40;;
56161;SDS011;42045;52.986;6.014;2023-06-10T12:13:31;6.53;;;3.78;;
56161;SDS011;42045;52.986;6.014;2023-06-10T12:16:07;6.88;;;3.22;;
56161;SDS011;42045;52.986;6.014;2023-06-10T12:18:33;6.65;;;3.78;;
56161;SDS011;42045;52.986;6.014;2023-06-10T12:20:59;5.28;;;3.28;;
56161;SDS011;42045;52.986;6.014;2023-06-10T12:23:25;4.85;;;3.25;;
56161;SDS011;42045;52.986;6.014;2023-06-10T12:25:51;6.88;;;3.47;;
56161;SDS011;42045;52.986;6.014;2023-06-10T12:28:22;7.47;;;3.97;;
56161;SDS011;42045;52.986;6.014;2023-06-10T12:30:50;5.63;;;3.15;;
56161;SDS011;42045;52.986;6.014;2023-06-10T12:33:18;6.85;;;3.70;;
56161;SDS011;42045;52.986;6.014;2023-06-10T12:35:48;6.88;;;3.50;;
56161;SDS011;42045;52.986;6.014;2023-06-10T12:38:21;6.00;;;3.70;;
56161;SDS011;42045;52.986;6.014;2023-06-10T12:40:49;6.47;;;3.35;;
56161;SDS011;42045;52.986;6.014;2023-06-10T12:43:19;5.25;;;3.13;;
56161;SDS011;42045;52.986;6.014;2023-06-10T12:45:45;3.63;;;3.00;;
56161;SDS011;42045;52.986;6.014;2023-06-10T12:50:52;5.63;;;3.40;;
56161;SDS011;42045;52.986;6.014;2023-06-10T12:53:19;5.60;;;3.20;;
56161;SDS011;42045;52.986;6.014;2023-06-10T12:55:46;4.63;;;3.10;;
56161;SDS011;42045;52.986;6.014;2023-06-10T12:58:12;12.02;;;3.92;;
56161;SDS011;42045;52.986;6.014;2023-06-10T13:00:38;5.90;;;3.35;;
56161;SDS011;42045;52.986;6.014;2023-06-10T13:03:05;4.18;;;3.10;;
56161;SDS011;42045;52.986;6.014;2023-06-10T13:05:32;4.68;;;3.53;;
56161;SDS011;42045;52.986;6.014;2023-06-10T13:07:58;3.70;;;3.25;;
56161;SDS011;42045;52.986;6.014;2023-06-10T13:10:24;7.65;;;3.47;;
56161;SDS011;42045;52.986;6.014;2023-06-10T13:12:51;4.55;;;3.20;;
56161;SDS011;42045;52.986;6.014;2023-06-10T13:15:17;6.00;;;3.28;;
56161;SDS011;42045;52.986;6.014;2023-06-10T13:17:44;7.38;;;3.83;;
56161;SDS011;42045;52.986;6.014;2023-06-10T13:20:11;5.75;;;3.58;;
56161;SDS011;42045;52.986;6.014;2023-06-10T13:22:37;3.95;;;3.40;;
56161;SDS011;42045;52.986;6.014;2023-06-10T13:25:03;6.47;;;3.40;;
56161;SDS011;42045;52.986;6.014;2023-06-10T13:27:30;4.13;;;3.10;;
56161;SDS011;42045;52.986;6.014;2023-06-10T13:29:56;8.93;;;3.10;;
56161;SDS011;42045;52.986;6.014;2023-06-10T13:32:21;5.07;;;3.63;;
56161;SDS011;42045;52.986;6.014;2023-06-10T13:34:47;4.47;;;2.80;;
56161;SDS011;42045;52.986;6.014;2023-06-10T13:37:14;5.68;;;3.20;;
56161;SDS011;42045;52.986;6.014;2023-06-10T13:39:43;5.80;;;3.35;;
56161;SDS011;42045;52.986;6.014;2023-06-10T13:42:09;10.82;;;3.50;;
56161;SDS011;42045;52.986;6.014;2023-06-10T13:44:34;6.05;;;3.30;;
56161;SDS011;42045;52.986;6.014;2023-06-10T13:47:04;6.03;;;3.90;;
56161;SDS011;42045;52.986;6.014;2023-06-10T13:49:30;6.35;;;3.33;;
56161;SDS011;42045;52.986;6.014;2023-06-10T13:51:56;5.82;;;3.40;;
56161;SDS011;42045;52.986;6.014;2023-06-10T13:54:22;5.20;;;3.60;;
56161;SDS011;42045;52.986;6.014;2023-06-10T13:56:48;4.53;;;3.55;;
56161;SDS011;42045;52.986;6.014;2023-06-10T13:59:13;5.97;;;3.90;;
56161;SDS011;42045;52.986;6.014;2023-06-10T14:01:39;5.47;;;3.45;;
56161;SDS011;42045;52.986;6.014;2023-06-10T14:04:05;5.40;;;3.97;;
56161;SDS011;42045;52.986;6.014;2023-06-10T14:06:32;7.22;;;4.28;;
56161;SDS011;42045;52.986;6.014;2023-06-10T14:08:58;11.30;;;4.88;;
56161;SDS011;42045;52.986;6.014;2023-06-10T14:11:24;6.63;;;3.55;;
56161;SDS011;42045;52.986;6.014;2023-06-10T14:13:50;5.45;;;3.40;;
56161;SDS011;42045;52.986;6.014;2023-06-10T14:16:16;5.13;;;3.40;;
56161;SDS011;42045;52.986;6.014;2023-06-10T14:18:42;10.45;;;3.22;;
56161;SDS011;42045;52.986;6.014;2023-06-10T14:21:07;7.15;;;3.88;;
56161;SDS011;42045;52.986;6.014;2023-06-10T14:23:33;5.50;;;3.13;;
56161;SDS011;42045;52.986;6.014;2023-06-10T14:25:59;5.78;;;3.50;;
56161;SDS011;42045;52.986;6.014;2023-06-10T14:28:24;4.35;;;3.40;;
56161;SDS011;42045;52.986;6.014;2023-06-10T14:30:52;6.45;;;4.00;;
56161;SDS011;42045;52.986;6.014;2023-06-10T14:33:17;7.88;;;4.43;;
56161;SDS011;42045;52.986;6.014;2023-06-10T14:35:43;7.00;;;4.15;;
56161;SDS011;42045;52.986;6.014;2023-06-10T14:38:09;7.05;;;3.88;;
56161;SDS011;42045;52.986;6.014;2023-06-10T14:40:35;6.32;;;4.13;;
56161;SDS011;42045;52.986;6.014;2023-06-10T14:43:00;6.30;;;3.80;;
56161;SDS011;42045;52.986;6.014;2023-06-10T14:45:29;12.73;;;4.30;;
56161;SDS011;42045;52.986;6.014;2023-06-10T14:47:54;5.45;;;3.65;;
56161;SDS011;42045;52.986;6.014;2023-06-10T14:50:20;8.07;;;3.70;;
56161;SDS011;42045;52.986;6.014;2023-06-10T14:52:46;7.35;;;4.28;;
56161;SDS011;42045;52.986;6.014;2023-06-10T14:55:11;7.15;;;4.22;;
56161;SDS011;42045;52.986;6.014;2023-06-10T14:57:37;8.82;;;4.53;;
56161;SDS011;42045;52.986;6.014;2023-06-10T15:00:03;4.47;;;4.00;;
56161;SDS011;42045;52.986;6.014;2023-06-10T15:02:29;6.25;;;4.03;;
56161;SDS011;42045;52.986;6.014;2023-06-10T15:04:55;5.68;;;4.05;;
56161;SDS011;42045;52.986;6.014;2023-06-10T15:07:20;7.72;;;4.32;;
56161;SDS011;42045;52.986;6.014;2023-06-10T15:09:46;8.82;;;4.10;;
56161;SDS011;42045;52.986;6.014;2023-06-10T15:12:12;11.27;;;4.28;;
56161;SDS011;42045;52.986;6.014;2023-06-10T15:14:37;5.85;;;3.78;;
56161;SDS011;42045;52.986;6.014;2023-06-10T15:17:03;5.10;;;3.80;;